Time;durP1;ratioP1;P1;durP2;ratioP2;P2;SDS_P1;SDS_P2;PMS_P1;PMS_P2;Temp;Humidity;BMP_temperature;BMP_pressure;BME280_temperature;BME280_humidity;BME280_pressure;Samples;Min_cycle;Max_cycle;Signal;HPM_P1;HPM_P2
2022/07/20 00:00:56;;;;;;;;;1.00;1.00;;;;;24.45;48.45;98911.41;4900871;28;102113;-65
2022/07/20 00:03:23;;;;;;;;;2.00;1.00;;;;;24.44;48.37;98909.75;4901522;28;102324;-65
2022/07/20 00:05:50;;;;;;;;;1.00;1.00;;;;;24.44;48.66;98913.34;4893336;28;102310;-65
2022/07/20 00:11:19;;;;;;;;;1.33;1.00;;;;;24.44;48.65;98910.59;4917925;28;105756;-65
2022/07/20 00:11:23;;;;;;;;;2.00;1.00;;;;;24.42;48.77;98911.97;4908653;28;104038;-65
2022/07/20 00:13:55;;;;;;;;;2.00;2.00;;;;;24.44;48.48;98907.00;4909073;28;102430;-65
2022/07/20 00:16:23;;;;;;;;;3.00;1.00;;;;;24.47;48.72;98919.41;4925270;28;102702;-65
2022/07/20 00:18:51;;;;;;;;;1.67;1.67;;;;;24.45;48.57;98911.41;4894213;28;104316;-65
2022/07/20 00:21:19;;;;;;;;;1.00;1.00;;;;;24.42;48.55;98910.03;4895664;28;102415;-65
2022/07/20 00:23:47;;;;;;;;;1.00;1.00;;;;;24.41;48.72;98910.31;4894266;28;102201;-65
2022/07/20 00:26:14;;;;;;;;;1.33;1.33;;;;;24.40;48.67;98915.03;4913802;28;105772;-65
2022/07/20 00:28:42;;;;;;;;;1.00;1.00;;;;;24.37;48.67;98914.75;4893364;28;104756;-65
2022/07/20 00:31:09;;;;;;;;;3.00;1.00;;;;;24.38;48.83;98913.66;4912946;28;102674;-65
2022/07/20 00:33:37;;;;;;;;;1.00;1.00;;;;;24.39;48.69;98916.13;4911091;28;102545;-65
2022/07/20 00:36:04;;;;;;;;;2.00;1.00;;;;;24.38;48.53;98916.41;4897126;28;111402;-65
2022/07/20 00:38:32;;;;;;;;;2.67;2.00;;;;;24.38;48.66;98919.19;4938483;28;103524;-66
2022/07/20 00:40:59;;;;;;;;;1.00;1.00;;;;;24.38;48.89;98914.47;4894752;28;103916;-65
2022/07/20 00:43:26;;;;;;;;;2.00;1.67;;;;;24.37;48.71;98915.56;4908253;28;102412;-65
2022/07/20 00:45:54;;;;;;;;;2.00;2.00;;;;;24.36;48.73;98910.34;4914106;28;102431;-66
2022/07/20 00:48:21;;;;;;;;;2.00;2.00;;;;;24.37;48.79;98912.81;4908136;28;105683;-65
2022/07/20 00:50:49;;;;;;;;;1.33;1.33;;;;;24.38;48.91;98910.88;4912836;28;102285;-65
2022/07/20 00:53:16;;;;;;;;;1.33;1.33;;;;;24.36;48.94;98907.59;4912170;28;102158;-65
2022/07/20 00:55:49;;;;;;;;;1.33;1.33;;;;;24.37;48.75;98906.47;4899203;28;102188;-65
2022/07/20 00:58:16;;;;;;;;;2.00;2.00;;;;;24.37;48.74;98914.75;4914190;28;102917;-65
2022/07/20 01:00:44;;;;;;;;;3.00;2.67;;;;;24.33;48.78;98910.91;4908382;28;102331;-65
2022/07/20 01:03:11;;;;;;;;;1.00;1.00;;;;;24.32;49.04;98920.28;4895240;28;104718;-65
2022/07/20 01:05:38;;;;;;;;;2.00;2.00;;;;;24.32;48.70;98912.00;4877246;28;102883;-65
2022/07/20 01:08:06;;;;;;;;;1.00;1.00;;;;;24.32;48.90;98917.53;4891743;28;104090;-65
2022/07/20 01:10:33;;;;;;;;;1.00;1.00;;;;;24.30;48.76;98919.78;4903001;28;102035;-65
2022/07/20 01:13:00;;;;;;;;;1.00;1.00;;;;;24.28;49.06;98910.91;4904578;28;102279;-65
2022/07/20 01:15:27;;;;;;;;;2.33;2.00;;;;;24.31;48.84;98915.91;4916269;28;102609;-65
2022/07/20 01:17:55;;;;;;;;;1.33;1.33;;;;;24.29;48.84;98920.88;4897462;28;104214;-65
2022/07/20 01:20:22;;;;;;;;;2.00;1.00;;;;;24.25;48.87;98914.25;4909453;28;102378;-65
2022/07/20 01:22:49;;;;;;;;;1.33;1.33;;;;;24.27;48.64;98912.06;4918183;28;102448;-65
2022/07/20 01:25:17;;;;;;;;;1.00;1.00;;;;;24.28;49.03;98916.44;4895126;28;102739;-65
2022/07/20 01:27:44;;;;;;;;;1.00;1.00;;;;;24.25;48.88;98915.09;4896233;28;104149;-65
2022/07/20 01:30:17;;;;;;;;;2.00;1.33;;;;;24.26;48.76;98919.50;4908317;28;103185;-65
2022/07/20 01:32:44;;;;;;;;;2.00;2.00;;;;;24.22;48.84;98910.13;4910418;28;102226;-65
2022/07/20 01:35:12;;;;;;;;;1.67;1.67;;;;;24.23;48.86;98916.47;4913008;28;102360;-65
2022/07/20 01:37:39;;;;;;;;;1.00;1.00;;;;;24.22;48.71;98923.94;4906845;28;103843;-65
2022/07/20 01:40:07;;;;;;;;;2.00;2.00;;;;;24.21;49.05;98924.22;4915325;28;102056;-65
2022/07/20 01:42:34;;;;;;;;;1.00;1.00;;;;;24.17;48.71;98917.59;4928891;28;102222;-65
2022/07/20 01:45:02;;;;;;;;;1.67;1.67;;;;;24.20;48.89;98914.28;4923057;28;102279;-65
2022/07/20 01:47:29;;;;;;;;;2.00;2.00;;;;;24.17;49.03;98918.44;4894709;28;103031;-65
2022/07/20 01:49:56;;;;;;;;;2.00;2.00;;;;;24.19;49.09;98929.19;4926708;28;103974;-65
2022/07/20 01:52:24;;;;;;;;;2.00;1.00;;;;;24.16;49.19;98921.47;4914463;28;102270;-65
2022/07/20 01:54:51;;;;;;;;;2.00;1.00;;;;;24.17;49.08;98912.91;4920431;28;103595;-65
2022/07/20 01:57:18;;;;;;;;;1.00;1.00;;;;;24.17;48.82;98915.69;4910744;28;103690;-65
2022/07/20 01:59:45;;;;;;;;;2.00;2.00;;;;;24.18;48.93;98914.53;4907910;28;102228;-65
2022/07/20 02:02:13;;;;;;;;;1.00;1.00;;;;;24.17;48.92;98914.84;4914003;28;102228;-65
2022/07/20 02:04:40;;;;;;;;;1.00;0.67;;;;;24.18;49.06;98910.97;4917530;28;102696;-65
2022/07/20 02:07:07;;;;;;;;;2.00;2.00;;;;;24.16;48.88;98916.78;4896173;28;104008;-65
2022/07/20 02:09:34;;;;;;;;;2.00;2.00;;;;;24.16;48.86;98916.78;4931296;28;102365;-65
2022/07/20 02:12:01;;;;;;;;;1.67;1.67;;;;;24.12;48.85;98915.66;4914437;28;102563;-65
2022/07/20 02:14:28;;;;;;;;;1.33;1.33;;;;;24.14;49.02;98910.66;4912946;28;102176;-65
2022/07/20 02:16:56;;;;;;;;;2.00;2.00;;;;;24.12;49.02;98923.13;4908260;28;104078;-65
2022/07/20 02:19:23;;;;;;;;;2.00;2.00;;;;;24.10;49.01;98917.03;4897758;28;102360;-65
2022/07/20 02:21:50;;;;;;;;;1.00;1.00;;;;;24.10;49.30;98919.78;4889434;28;102198;-65
2022/07/20 02:24:17;;;;;;;;;1.00;1.00;;;;;24.10;49.20;98926.16;4895951;28;102302;-66
2022/07/20 02:26:44;;;;;;;;;2.67;2.00;;;;;24.11;49.22;98924.22;4913902;28;104113;-65
2022/07/20 02:29:12;;;;;;;;;2.00;2.00;;;;;24.10;49.19;98923.38;4922870;28;102607;-65
2022/07/20 02:31:39;;;;;;;;;0.00;0.00;;;;;24.10;49.19;98917.84;4906252;28;102252;-65
2022/07/20 02:34:06;;;;;;;;;1.00;1.00;;;;;24.10;49.22;98920.63;4943081;28;105097;-65
2022/07/20 02:36:33;;;;;;;;;2.00;2.00;;;;;24.09;49.14;98920.94;4923572;28;109341;-65
2022/07/20 02:39:00;;;;;;;;;1.00;1.00;;;;;24.08;49.21;98910.97;4921517;28;102558;-66
2022/07/20 02:41:28;;;;;;;;;2.00;2.00;;;;;24.09;49.17;98909.88;4894620;28;102171;-65
2022/07/20 02:43:55;;;;;;;;;1.00;1.00;;;;;24.07;49.16;98901.03;4909378;28;102562;-65
2022/07/20 02:46:24;;;;;;;;;2.33;2.00;;;;;24.08;48.89;98910.97;4943902;28;103324;-65
2022/07/20 02:48:51;;;;;;;;;1.00;1.00;;;;;24.06;49.16;98908.47;4938988;28;102232;-65
2022/07/20 02:51:19;;;;;;;;;1.00;1.00;;;;;24.06;49.25;98900.19;4906312;28;103860;-66
2022/07/20 02:53:46;;;;;;;;;1.33;1.33;;;;;24.07;49.18;98912.06;4896494;28;109937;-65
2022/07/20 02:56:13;;;;;;;;;2.00;2.00;;;;;24.06;48.93;98913.19;4920874;28;104082;-65
2022/07/20 02:58:41;;;;;;;;;1.00;1.00;;;;;24.05;49.18;98914.28;4890512;28;102465;-65
2022/07/20 03:01:08;;;;;;;;;1.33;1.00;;;;;24.02;49.21;98916.50;4927126;28;103212;-65
2022/07/20 03:03:36;;;;;;;;;1.00;1.00;;;;;24.04;49.21;98920.94;4915669;28;102163;-65
2022/07/20 03:06:04;;;;;;;;;1.00;1.00;;;;;24.05;49.22;98914.28;4910144;28;110442;-65
2022/07/20 03:08:31;;;;;;;;;1.00;1.00;;;;;24.04;49.04;98915.41;4922472;28;102542;-65
2022/07/20 03:10:58;;;;;;;;;1.33;1.00;;;;;24.02;49.13;98922.03;4928904;28;102865;-66
2022/07/20 03:13:25;;;;;;;;;2.00;2.00;;;;;24.02;49.05;98929.50;4896446;28;103340;-66
2022/07/20 03:15:52;;;;;;;;;1.33;1.33;;;;;24.00;48.97;98921.47;4892619;28;105646;-65
2022/07/20 03:18:20;;;;;;;;;1.00;1.00;;;;;23.99;49.32;98921.78;4912164;28;103472;-65
2022/07/20 03:20:47;;;;;;;;;1.67;1.67;;;;;23.97;49.35;98924.81;4906497;28;102485;-65
2022/07/20 03:23:14;;;;;;;;;1.00;1.00;;;;;23.99;49.23;98925.38;4897317;28;102630;-65
2022/07/20 03:25:41;;;;;;;;;3.00;2.00;;;;;24.01;49.04;98925.91;4912480;28;104514;-65
2022/07/20 03:28:09;;;;;;;;;1.00;1.00;;;;;23.99;49.24;98922.59;4935066;28;102409;-65
2022/07/20 03:30:36;;;;;;;;;3.33;3.00;;;;;23.98;48.91;98920.13;4914882;28;102785;-65
2022/07/20 03:33:03;;;;;;;;;2.00;2.00;;;;;23.97;49.17;98930.34;4920159;28;102348;-65
2022/07/20 03:35:30;;;;;;;;;1.00;1.00;;;;;23.95;49.46;98935.31;4923214;28;104575;-65
2022/07/20 03:37:57;;;;;;;;;2.00;2.00;;;;;23.91;49.39;98930.63;4895372;28;102236;-65
2022/07/20 03:40:24;;;;;;;;;1.00;1.00;;;;;23.93;49.35;98926.47;4904924;28;102471;-65
2022/07/20 03:42:51;;;;;;;;;1.33;1.33;;;;;23.94;49.09;98925.38;4927621;28;102393;-65
2022/07/20 03:45:19;;;;;;;;;1.00;1.00;;;;;23.94;49.12;98935.59;4910375;28;103849;-66
2022/07/20 03:47:53;;;;;;;;;3.00;2.00;;;;;23.95;49.29;98942.78;4908379;28;103573;-65
2022/07/20 03:50:20;;;;;;;;;1.67;1.00;;;;;23.94;49.20;98939.19;4932890;28;102417;-65
2022/07/20 03:52:48;;;;;;;;;2.33;1.00;;;;;23.94;49.22;98941.13;4921440;28;102370;-65
2022/07/20 03:55:15;;;;;;;;;2.00;2.00;;;;;23.90;49.28;98938.09;4910337;28;103308;-66
2022/07/20 03:57:43;;;;;;;;;1.00;1.00;;;;;23.91;49.01;98934.19;4891000;28;102702;-65
2022/07/20 04:00:10;;;;;;;;;1.00;1.00;;;;;23.91;49.16;98938.94;4909706;28;102455;-66
2022/07/20 04:02:37;;;;;;;;;1.00;1.00;;;;;23.93;48.99;98948.56;4911333;28;102199;-65
2022/07/20 04:05:05;;;;;;;;;1.00;1.00;;;;;23.89;49.15;98944.72;4915464;28;104090;-65
2022/07/20 04:07:32;;;;;;;;;1.67;1.67;;;;;23.89;49.21;98943.88;4885005;28;102100;-65
2022/07/20 04:10:00;;;;;;;;;0.00;0.00;;;;;23.88;48.82;98937.53;4914603;28;102193;-65
2022/07/20 04:12:27;;;;;;;;;2.33;2.00;;;;;23.87;49.04;98937.81;4940838;28;102553;-65
2022/07/20 04:14:54;;;;;;;;;1.33;1.00;;;;;23.88;49.07;98932.00;4912005;28;104080;-65
2022/07/20 04:17:21;;;;;;;;;1.33;1.00;;;;;23.90;48.95;98943.63;4901178;28;102682;-65
2022/07/20 04:19:48;;;;;;;;;1.00;1.00;;;;;23.86;49.13;98937.00;4938163;28;102585;-65
2022/07/20 04:22:15;;;;;;;;;2.00;2.00;;;;;23.90;49.13;98949.16;4911269;28;102269;-66
2022/07/20 04:24:43;;;;;;;;;2.00;2.00;;;;;23.91;48.94;98948.00;4893637;28;102988;-65
2022/07/20 04:27:10;;;;;;;;;1.67;1.67;;;;;23.91;48.92;98955.50;4913639;28;103278;-65
2022/07/20 04:29:37;;;;;;;;;1.00;1.00;;;;;23.91;48.86;98950.78;4894703;28;102463;-65
2022/07/20 04:32:04;;;;;;;;;2.00;2.00;;;;;23.90;48.96;98959.38;4888355;28;102190;-65
2022/07/20 04:34:32;;;;;;;;;1.00;1.00;;;;;23.90;48.84;98951.91;4899304;28;108906;-66
2022/07/20 04:37:05;;;;;;;;;1.67;1.00;;;;;23.90;48.92;98960.19;4896511;28;102282;-65
2022/07/20 04:39:32;;;;;;;;;2.00;2.00;;;;;23.88;49.02;98965.16;4917009;28;102211;-66
2022/07/20 04:41:59;;;;;;;;;2.67;2.33;;;;;23.90;49.01;98974.00;4924400;28;102459;-65
2022/07/20 04:44:27;;;;;;;;;1.67;1.67;;;;;23.91;49.04;98969.31;4900264;28;104258;-66
2022/07/20 04:46:54;;;;;;;;;1.33;1.00;;;;;23.91;48.90;98969.31;4924530;28;102014;-65
2022/07/20 04:49:21;;;;;;;;;2.00;1.00;;;;;23.93;49.17;98973.44;4939697;28;102724;-65
2022/07/20 04:51:48;;;;;;;;;2.00;1.67;;;;;23.94;49.18;98971.50;4914510;28;102699;-66
2022/07/20 04:54:18;;;;;;;;;2.00;2.00;;;;;23.94;48.99;98982.56;4909265;28;104176;-65
2022/07/20 04:56:46;;;;;;;;;3.00;2.00;;;;;23.96;48.73;98967.34;4911493;28;102150;-65
2022/07/20 04:59:14;;;;;;;;;3.00;2.00;;;;;23.96;48.88;98977.56;4910366;28;102193;-65
2022/07/20 05:01:41;;;;;;;;;2.00;2.00;;;;;23.96;49.08;98980.31;4899781;28;103137;-66
2022/07/20 05:04:10;;;;;;;;;4.00;3.00;;;;;23.96;48.87;98977.56;4913731;28;104076;-65
2022/07/20 05:06:37;;;;;;;;;2.00;2.00;;;;;23.97;48.79;98974.53;4914839;28;102354;-65
2022/07/20 05:09:07;;;;;;;;;3.00;2.00;;;;;23.96;48.94;98967.34;4884734;28;102197;-65
2022/07/20 05:11:34;;;;;;;;;2.00;2.00;;;;;23.96;48.85;98983.09;4916000;28;102351;-65
2022/07/20 05:14:01;;;;;;;;;1.67;1.00;;;;;23.96;48.78;98972.03;4902381;28;102927;-65
2022/07/20 05:16:28;;;;;;;;;3.00;2.33;;;;;23.98;48.86;98981.72;4912532;28;102228;-65
2022/07/20 05:18:56;;;;;;;;;1.00;1.00;;;;;23.91;48.94;98964.59;4914029;28;102670;-65
2022/07/20 05:21:23;;;;;;;;;2.00;2.00;;;;;24.00;48.83;98978.69;4893007;28;103057;-65
2022/07/20 05:23:50;;;;;;;;;1.00;1.00;;;;;24.03;48.74;98972.59;4881267;28;102896;-66
2022/07/20 05:26:18;;;;;;;;;1.67;1.67;;;;;24.07;48.91;98970.09;4919482;28;102920;-65
2022/07/20 05:28:45;;;;;;;;;2.00;2.00;;;;;24.08;48.90;98980.88;4911292;28;103259;-65
2022/07/20 05:31:16;;;;;;;;;1.00;1.00;;;;;24.09;48.49;98974.22;4900752;28;102499;-65
2022/07/20 05:33:43;;;;;;;;;2.33;1.67;;;;;24.10;48.59;98978.66;4920561;28;105826;-66
2022/07/20 05:36:10;;;;;;;;;1.67;1.67;;;;;24.11;48.47;98979.47;4918254;28;102560;-65
2022/07/20 05:38:38;;;;;;;;;2.67;2.00;;;;;24.12;48.69;98976.44;4924489;28;102302;-66
2022/07/20 05:41:06;;;;;;;;;2.00;2.00;;;;;24.12;48.57;98981.97;4924205;28;102341;-65
2022/07/20 05:43:33;;;;;;;;;3.00;1.33;;;;;24.12;48.59;98983.91;4903858;28;108700;-66
2022/07/20 05:46:00;;;;;;;;;2.00;2.00;;;;;24.12;48.59;98981.13;4880051;28;102602;-65
2022/07/20 05:48:29;;;;;;;;;2.67;1.00;;;;;24.12;48.62;98986.66;4914304;28;102290;-65
2022/07/20 05:50:56;;;;;;;;;1.67;1.33;;;;;24.13;48.72;98982.81;4896369;28;102262;-65
2022/07/20 05:53:23;;;;;;;;;0.00;0.00;;;;;24.13;48.78;98982.81;4914237;28;103350;-66
2022/07/20 05:55:50;;;;;;;;;1.67;1.67;;;;;24.13;48.74;98980.03;4898800;28;102227;-66
2022/07/20 05:58:17;;;;;;;;;2.00;2.00;;;;;24.13;48.57;98983.63;4915797;28;102459;-66
2022/07/20 06:00:44;;;;;;;;;1.00;1.00;;;;;24.14;48.51;98989.97;4929804;28;102617;-66
2022/07/20 06:03:11;;;;;;;;;1.00;1.00;;;;;24.13;48.68;98983.63;4907890;28;103081;-65
2022/07/20 06:05:39;;;;;;;;;2.33;2.00;;;;;24.12;48.63;98984.72;4896980;28;102290;-65
2022/07/20 06:08:06;;;;;;;;;1.67;1.67;;;;;24.12;48.59;98981.13;4913038;28;102580;-65
2022/07/20 06:10:34;;;;;;;;;1.00;1.00;;;;;24.12;48.61;98987.50;4935274;28;102431;-65
2022/07/20 06:13:01;;;;;;;;;2.33;2.00;;;;;24.13;48.78;98988.31;4896007;28;104286;-65
2022/07/20 06:15:35;;;;;;;;;1.00;1.00;;;;;24.13;48.77;98985.56;4913586;28;102427;-65
2022/07/20 06:18:02;;;;;;;;;2.00;2.00;;;;;24.13;48.78;98989.16;4930069;28;104096;-65
2022/07/20 06:20:29;;;;;;;;;1.00;1.00;;;;;24.13;48.61;98996.63;4914350;28;102202;-65
2022/07/20 06:22:58;;;;;;;;;2.00;2.00;;;;;24.12;48.59;98998.56;4895991;28;104198;-65
2022/07/20 06:25:26;;;;;;;;;1.67;1.00;;;;;24.14;48.77;99001.00;4934579;28;102655;-65
2022/07/20 06:27:53;;;;;;;;;1.00;1.00;;;;;24.15;48.61;98997.16;4923961;28;102554;-65
2022/07/20 06:30:20;;;;;;;;;1.00;1.00;;;;;24.16;48.78;99009.91;4925155;28;102426;-65
2022/07/20 06:32:47;;;;;;;;;2.00;2.00;;;;;24.14;48.51;99004.59;4934799;28;104311;-65
2022/07/20 06:35:16;;;;;;;;;1.00;1.00;;;;;24.16;48.82;99001.59;4896188;28;102167;-65
2022/07/20 06:37:43;;;;;;;;;1.00;1.00;;;;;24.16;48.67;99007.13;4921884;28;102339;-65
2022/07/20 06:40:11;;;;;;;;;1.00;1.00;;;;;24.17;48.43;99001.34;4914961;28;102642;-65
2022/07/20 06:42:38;;;;;;;;;1.00;1.00;;;;;24.17;48.63;99011.56;4913543;28;105995;-65
2022/07/20 06:45:05;;;;;;;;;1.00;0.67;;;;;24.17;48.61;99006.88;4918952;28;102244;-65
2022/07/20 06:47:33;;;;;;;;;0.00;0.00;;;;;24.17;48.49;99017.91;4921900;28;103489;-65
2022/07/20 06:50:00;;;;;;;;;2.00;1.00;;;;;24.18;48.18;99007.69;4907973;28;103445;-65
2022/07/20 06:52:32;;;;;;;;;1.00;1.00;;;;;24.18;48.69;99008.50;4910407;28;102964;-65
2022/07/20 06:55:01;;;;;;;;;0.33;0.33;;;;;24.18;48.28;99002.16;4915746;28;102181;-65
2022/07/20 06:57:29;;;;;;;;;1.00;1.00;;;;;24.16;48.52;98999.69;4934106;28;102403;-65
2022/07/20 06:59:56;;;;;;;;;2.00;2.00;;;;;24.16;48.71;98998.84;4915527;28;102339;-65
2022/07/20 07:02:23;;;;;;;;;1.00;1.00;;;;;24.17;48.55;98997.75;4914579;28;105203;-65
2022/07/20 07:04:50;;;;;;;;;1.00;1.00;;;;;24.17;48.60;99006.88;4891073;28;102217;-65
2022/07/20 07:07:17;;;;;;;;;1.00;1.00;;;;;24.16;48.80;98999.69;4906684;28;102716;-65
2022/07/20 07:09:44;;;;;;;;;1.00;1.00;;;;;24.18;48.79;99004.94;4912344;28;102392;-65
2022/07/20 07:12:12;;;;;;;;;1.67;1.67;;;;;24.17;48.69;99006.88;4908285;28;105974;-65
2022/07/20 07:14:39;;;;;;;;;1.00;1.00;;;;;24.19;48.72;99004.63;4909290;28;102188;-65
2022/07/20 07:17:06;;;;;;;;;1.67;1.67;;;;;24.19;48.63;99009.34;4932807;28;102340;-65
2022/07/20 07:19:33;;;;;;;;;2.00;2.00;;;;;24.18;48.63;99002.16;4883475;28;102256;-65
2022/07/20 07:22:00;;;;;;;;;1.00;1.00;;;;;24.16;48.53;99005.19;4917732;28;104070;-65
2022/07/20 07:24:27;;;;;;;;;1.00;1.00;;;;;24.18;48.54;99002.16;4911424;28;102211;-65
2022/07/20 07:26:55;;;;;;;;;1.67;1.67;;;;;24.18;48.69;99004.94;4910003;28;102244;-65
2022/07/20 07:29:23;;;;;;;;;1.00;1.00;;;;;24.20;48.59;99002.69;4914187;28;102494;-65
2022/07/20 07:31:51;;;;;;;;;2.00;2.00;;;;;24.18;48.68;99002.16;4929983;28;102873;-65
2022/07/20 07:34:18;;;;;;;;;0.00;0.00;;;;;24.19;48.71;99003.81;4913237;28;102478;-65
2022/07/20 07:36:45;;;;;;;;;1.00;1.00;;;;;24.20;48.68;98999.94;4914457;28;102715;-66
2022/07/20 07:39:12;;;;;;;;;1.00;1.00;;;;;24.19;48.73;99009.34;4918405;28;102492;-65
2022/07/20 07:41:40;;;;;;;;;0.00;0.00;;;;;24.19;48.67;99010.16;4920174;28;104228;-65
2022/07/20 07:44:07;;;;;;;;;1.00;1.00;;;;;24.18;48.52;99014.03;4922019;28;102095;-65
2022/07/20 07:46:34;;;;;;;;;1.00;1.00;;;;;24.19;48.55;99014.84;4920505;28;102132;-66
2022/07/20 07:49:02;;;;;;;;;1.00;1.00;;;;;24.20;48.72;99014.59;4926875;28;102519;-65
2022/07/20 07:51:30;;;;;;;;;1.33;1.33;;;;;24.19;48.73;99014.84;4918641;28;104295;-65
2022/07/20 07:53:57;;;;;;;;;0.67;0.00;;;;;24.18;48.60;99008.50;4918709;28;104647;-65
2022/07/20 07:56:24;;;;;;;;;2.00;2.00;;;;;24.19;48.68;99015.69;4941624;28;102545;-65
2022/07/20 07:58:51;;;;;;;;;1.00;1.00;;;;;24.19;48.82;99010.16;4916119;28;102295;-65
2022/07/20 08:01:38;;;;;;;;;1.00;1.00;;;;;24.21;48.58;99004.38;4915933;28;111399;-65
2022/07/20 08:04:06;;;;;;;;;2.00;1.00;;;;;24.22;48.47;99012.38;4919583;28;102418;-65
2022/07/20 08:06:33;;;;;;;;;1.33;1.00;;;;;24.22;48.51;99008.78;4902894;28;103781;-66
2022/07/20 08:09:00;;;;;;;;;1.00;1.00;;;;;24.22;48.49;99004.09;4902589;28;102662;-65
2022/07/20 08:11:29;;;;;;;;;2.00;2.00;;;;;24.23;48.45;99004.91;4900609;28;104241;-65
2022/07/20 08:13:59;;;;;;;;;1.33;1.33;;;;;24.23;48.64;99002.13;4885296;28;102468;-65
2022/07/20 08:16:26;;;;;;;;;1.33;1.00;;;;;24.23;48.56;99004.91;4919443;28;103247;-65
2022/07/20 08:18:53;;;;;;;;;2.00;2.00;;;;;24.23;48.61;98999.38;4934143;28;102071;-66
2022/07/20 08:21:21;;;;;;;;;2.00;1.00;;;;;24.23;48.60;99000.19;4931634;28;105442;-65
2022/07/20 08:23:48;;;;;;;;;1.00;1.00;;;;;24.23;48.53;99000.19;4918965;28;102158;-66
2022/07/20 08:26:15;;;;;;;;;1.00;1.00;;;;;24.24;48.50;99001.03;4930068;28;102260;-65
2022/07/20 08:28:42;;;;;;;;;1.00;1.00;;;;;24.25;48.54;98991.63;4920478;28;102558;-66
2022/07/20 08:31:10;;;;;;;;;1.00;1.00;;;;;24.25;48.48;98998.00;4932266;28;105911;-65
2022/07/20 08:33:37;;;;;;;;;2.00;1.00;;;;;24.25;48.65;98997.16;4922384;28;102326;-65
2022/07/20 08:36:04;;;;;;;;;1.00;1.00;;;;;24.28;48.59;98999.34;4899542;28;102607;-65
2022/07/20 08:38:31;;;;;;;;;0.00;0.00;;;;;24.28;48.45;98996.59;4918706;28;103384;-65
2022/07/20 08:40:59;;;;;;;;;2.00;1.00;;;;;24.28;48.52;99002.94;4925168;28;104133;-65
2022/07/20 08:43:26;;;;;;;;;1.00;1.00;;;;;24.28;48.35;98994.66;4915703;28;101989;-65
2022/07/20 08:45:53;;;;;;;;;1.00;1.00;;;;;24.29;48.45;98993.56;4940128;28;102355;-65
2022/07/20 08:48:21;;;;;;;;;1.00;1.00;;;;;24.29;48.66;98993.56;4920532;28;102465;-65
2022/07/20 08:50:48;;;;;;;;;1.00;1.00;;;;;24.31;48.59;98998.81;4894478;28;104633;-65
2022/07/20 08:53:16;;;;;;;;;1.00;1.00;;;;;24.31;48.60;98996.06;4912408;28;102552;-65
2022/07/20 08:55:44;;;;;;;;;1.00;1.00;;;;;24.31;48.52;98990.53;4920150;28;102155;-65
2022/07/20 08:58:11;;;;;;;;;1.00;1.00;;;;;24.31;48.46;98982.22;4913341;28;102550;-66
2022/07/20 09:00:38;;;;;;;;;1.00;0.33;;;;;24.32;48.26;98983.88;4926322;28;105767;-65
2022/07/20 09:03:07;;;;;;;;;1.00;1.00;;;;;24.32;48.49;98986.63;4945387;28;102056;-65
2022/07/20 09:05:36;;;;;;;;;0.67;0.67;;;;;24.32;48.54;98978.34;4912609;28;103449;-65
2022/07/20 09:08:03;;;;;;;;;1.67;1.67;;;;;24.32;48.54;98975.56;4918787;28;102240;-65
2022/07/20 09:10:32;;;;;;;;;1.67;1.67;;;;;24.33;48.42;98978.06;4914584;28;102967;-65
2022/07/20 09:13:01;;;;;;;;;1.00;1.00;;;;;24.31;48.55;98980.31;4900428;28;102480;-65
2022/07/20 09:15:34;;;;;;;;;1.00;1.00;;;;;24.35;48.51;98983.31;4893696;28;102121;-65
2022/07/20 09:18:21;;;;;;;;;1.00;1.00;;;;;24.34;48.72;98981.66;4914715;28;102846;-65
2022/07/20 09:20:50;;;;;;;;;1.00;1.00;;;;;24.35;48.49;98977.78;4914013;28;108855;-65
2022/07/20 09:23:42;;;;;;;;;0.67;0.67;;;;;24.36;48.47;98983.03;4910684;28;102151;-65
2022/07/20 09:26:16;;;;;;;;;1.00;1.00;;;;;24.37;48.64;98978.31;4926681;28;102125;-65
2022/07/20 09:28:47;;;;;;;;;1.00;1.00;;;;;24.36;48.64;98971.16;4928403;28;102262;-65
2022/07/20 09:31:28;;;;;;;;;0.67;0.67;;;;;24.36;48.53;98974.72;4914133;28;104486;-65
2022/07/20 09:34:15;;;;;;;;;0.67;0.67;;;;;24.37;48.70;98975.56;4915711;28;102061;-65
2022/07/20 09:36:44;;;;;;;;;1.67;1.67;;;;;24.37;48.63;98978.31;4912728;28;102053;-65
2022/07/20 09:39:18;;;;;;;;;0.67;0.67;;;;;24.38;48.67;98980.00;4925421;28;102248;-65
2022/07/20 09:41:56;;;;;;;;;0.00;0.00;;;;;24.38;48.75;98975.28;4883251;28;104182;-65
2022/07/20 09:44:30;;;;;;;;;1.00;1.00;;;;;24.39;48.44;98976.13;4897163;28;102341;-65
2022/07/20 09:46:57;;;;;;;;;1.00;1.00;;;;;24.39;48.48;98973.34;4878553;28;102668;-65
2022/07/20 09:49:32;;;;;;;;;0.00;0.00;;;;;24.39;48.64;98965.91;4911723;28;102101;-65
2022/07/20 09:52:01;;;;;;;;;1.00;1.00;;;;;24.41;48.52;98979.41;4933167;28;104773;-65
2022/07/20 09:54:48;;;;;;;;;0.00;0.00;;;;;24.42;48.38;98975.56;4920562;28;104017;-65
2022/07/20 09:57:15;;;;;;;;;2.00;1.00;;;;;24.42;48.55;98970.03;4938668;28;103469;-65
2022/07/20 09:59:46;;;;;;;;;1.00;1.00;;;;;24.42;48.42;98959.78;4894644;28;102460;-65
2022/07/20 10:02:13;;;;;;;;;2.33;2.00;;;;;24.42;48.54;98959.78;4934508;28;108113;-65
2022/07/20 10:04:41;;;;;;;;;1.00;1.00;;;;;24.44;48.41;98956.75;4911528;28;102325;-65
2022/07/20 10:07:08;;;;;;;;;1.33;1.00;;;;;24.44;48.40;98962.28;4938677;28;102356;-65
2022/07/20 10:09:35;;;;;;;;;0.33;0.33;;;;;24.44;48.41;98948.47;4940619;28;102931;-65
2022/07/20 10:12:03;;;;;;;;;0.00;0.00;;;;;24.44;48.60;98957.59;4936698;28;110082;-65
2022/07/20 10:14:30;;;;;;;;;0.00;0.00;;;;;24.45;48.39;98953.69;4934290;28;102475;-65
2022/07/20 10:16:57;;;;;;;;;1.33;1.33;;;;;24.47;48.36;98955.34;4915195;28;102308;-65
2022/07/20 10:19:43;;;;;;;;;1.00;1.00;;;;;24.47;48.52;98945.13;4915921;28;102228;-65
2022/07/20 10:22:11;;;;;;;;;1.00;1.00;;;;;24.47;48.38;98945.13;4894669;28;108136;-65
2022/07/20 10:24:39;;;;;;;;;0.00;0.00;;;;;24.48;48.58;98946.78;4911359;28;102249;-65
2022/07/20 10:27:09;;;;;;;;;0.67;0.67;;;;;24.49;48.47;98942.09;4896819;28;102653;-65
2022/07/20 10:29:39;;;;;;;;;1.00;1.00;;;;;24.49;48.54;98948.44;4937988;28;102181;-65
2022/07/20 10:32:09;;;;;;;;;1.00;1.00;;;;;24.51;48.56;98946.22;4913296;28;108740;-65
2022/07/20 10:34:38;;;;;;;;;1.00;1.00;;;;;24.50;48.51;98947.31;4935601;28;102418;-65
2022/07/20 10:37:23;;;;;;;;;0.67;0.67;;;;;24.51;48.24;98948.16;4898234;28;102253;-65
2022/07/20 10:39:51;;;;;;;;;1.00;1.00;;;;;24.51;48.54;98951.75;4913708;28;102240;-65
2022/07/20 10:42:24;;;;;;;;;1.00;1.00;;;;;24.53;48.54;98941.25;4936621;28;104460;-65
2022/07/20 10:44:51;;;;;;;;;0.33;0.33;;;;;24.53;48.67;98937.63;4912227;28;102223;-65
2022/07/20 10:47:46;;;;;;;;;1.67;1.00;;;;;24.55;48.39;98949.22;4935422;28;102999;-65
2022/07/20 10:50:22;;;;;;;;;1.00;1.00;;;;;24.55;48.44;98938.16;4908084;28;102239;-65
2022/07/20 10:52:56;;;;;;;;;1.00;1.00;;;;;24.54;48.17;98940.09;4939192;28;104258;-65
2022/07/20 10:55:35;;;;;;;;;1.33;0.33;;;;;24.56;48.37;98935.13;4907803;28;103398;-65
2022/07/20 10:58:10;;;;;;;;;0.33;0.33;;;;;24.57;48.29;98934.03;4911878;28;104166;-65
2022/07/20 11:00:44;;;;;;;;;1.00;1.00;;;;;24.57;48.48;98936.78;4894856;28;102437;-65
2022/07/20 11:03:45;;;;;;;;;0.00;0.00;;;;;24.58;48.50;98935.69;4889360;28;109204;-65
2022/07/20 11:06:23;;;;;;;;;1.00;1.00;;;;;24.58;48.12;98930.16;4905502;28;103101;-65
2022/07/20 11:08:57;;;;;;;;;0.33;0.00;;;;;24.59;48.42;98931.78;4938122;28;104450;-65
2022/07/20 11:11:29;;;;;;;;;1.00;1.00;;;;;24.60;48.32;98922.38;4896378;28;102575;-65
2022/07/20 11:13:56;;;;;;;;;1.00;1.00;;;;;24.61;48.59;98928.75;4898804;28;104975;-65
2022/07/20 11:16:24;;;;;;;;;1.00;1.00;;;;;24.60;48.48;98927.91;4910096;28;102271;-65
2022/07/20 11:18:52;;;;;;;;;1.00;1.00;;;;;24.62;48.26;98925.72;4920616;28;102477;-65
2022/07/20 11:21:32;;;;;;;;;0.00;0.00;;;;;24.63;48.35;98921.81;4927957;28;102540;-65
2022/07/20 11:24:23;;;;;;;;;0.67;0.67;;;;;24.63;48.28;98919.03;4933709;28;109093;-66
2022/07/20 11:26:51;;;;;;;;;0.00;0.00;;;;;24.62;48.47;98914.66;4929145;28;102544;-65
2022/07/20 11:29:22;;;;;;;;;1.00;1.00;;;;;24.65;48.42;98918.78;4902243;28;101999;-65
2022/07/20 11:31:49;;;;;;;;;0.67;0.00;;;;;24.67;48.46;98916.56;4916877;28;102235;-65